< < Back
Terminal Aerodrome Forecast


Current Version              Previous Versions:   1  2  3  4  5  6  7  8  9  

Terminal Aerodrome Forecast

714
FTUS42 KFFC 222100 AAA
TAFCSG
TAF AMD
KCSG 222105Z 2221/2318 24007KT P6SM VCSH SCT025 BKN050
      TEMPO 2221/2224 3SM SHRA BR BKN025
     FM230000 27008KT P6SM SCT030 BKN060
     FM230400 30006KT P6SM SCT035
     FM231400 33010KT P6SM SCT040=

Latest METAR

445
SAUS70 KWBC 230700
MTRCSG
METAR KCSG 230651Z AUTO 00000KT 5SM BR CLR 16/14 A2987 RMK AO2 SLP110
T01560144


USA.gov is the U.S. government's official web portal to all federal, state and local government web resources and services.